Morris Run, Pennsylvania
Current Conditions -  °F | °C
As of 7:55 PM on Wednesday 17 Dec 2014 (Local Time) from KN38 Reporting Station
Overcast Overcast  
Wind Chill: 18°   Ceiling: 1700
Heat Index: 30°   Visibility: 10mi
Dew Point: 25°   Wind: 18mph
Humidity: 80%   Direction: 270°W
Pressure: 29.93"   Gusts: NA
Location:  41.68°N, 77.02°W
Report Text: KN38 180055Z AUTO 27016KT 10SM OVC017 M01/M04 A2993 RMK AO2
Loading
Personal Weather Stations






























Interactive Weather Map New forecast layout! Learn more

10-Day Weather Forecast

Advertisements
Track Severe Weather on mobile